Time;durP1;ratioP1;P1;durP2;ratioP2;P2;SDS_P1;SDS_P2;PMS_P1;PMS_P2;Temp;Humidity;BMP_temperature;BMP_pressure;BME280_temperature;BME280_humidity;BME280_pressure;Samples;Min_cycle;Max_cycle;Signal;HPM_P1;HPM_P2
2023/09/08 00:01:24;;;;;;;0.20;0.20;;;;;;;19.94;48.74;101781.28;4960531;28;20527;-85
2023/09/08 00:03:49;;;;;;;0.13;0.13;;;;;;;20.05;48.72;101798.91;4976618;28;20030;-85
2023/09/08 00:06:15;;;;;;;0.20;0.20;;;;;;;19.99;48.87;101797.56;4976657;28;20480;-85
2023/09/08 00:08:40;;;;;;;0.10;0.10;;;;;;;19.91;48.92;101793.78;4976508;28;20030;-85
2023/09/08 00:11:07;;;;;;;0.20;0.20;;;;;;;19.84;49.33;101800.41;4976132;28;20038;-85
2023/09/08 00:13:32;;;;;;;0.10;0.10;;;;;;;20.04;48.88;101816.47;4976638;28;20030;-85
2023/09/08 00:15:58;;;;;;;0.20;0.20;;;;;;;20.00;48.70;101806.28;4960319;28;20092;-85
2023/09/08 00:18:23;;;;;;;0.10;0.10;;;;;;;19.95;48.72;101803.97;4976290;28;20540;-85
2023/09/08 00:20:49;;;;;;;0.20;0.20;;;;;;;20.08;48.38;101808.38;4976429;28;20030;-85
2023/09/08 00:23:14;;;;;;;0.10;0.10;;;;;;;20.00;48.61;101814.16;4992351;28;20033;-85
2023/09/08 00:25:40;;;;;;;0.10;0.10;;;;;;;19.97;49.17;101814.38;4959821;28;20034;-85
2023/09/08 00:28:06;;;;;;;0.10;0.10;;;;;;;20.02;48.89;101828.03;5008776;28;20034;-85
2023/09/08 00:30:32;;;;;;;0.20;0.20;;;;;;;19.99;48.79;101815.13;4992540;28;20061;-85
2023/09/08 00:32:57;;;;;;;0.20;0.20;;;;;;;19.89;48.99;101812.28;4975906;28;20031;-85
2023/09/08 00:35:22;;;;;;;0.20;0.20;;;;;;;19.89;49.92;101827.22;4976095;28;20033;-86
2023/09/08 00:37:48;;;;;;;0.10;0.10;;;;;;;19.77;49.94;101800.84;4959930;28;20527;-85
2023/09/08 00:40:13;;;;;;;0.10;0.10;;;;;;;19.70;50.36;101828.47;4975779;28;20405;-85
2023/09/08 00:42:39;;;;;;;0.20;0.20;;;;;;;19.52;50.43;101810.47;4959831;28;20065;-85
2023/09/08 00:45:05;;;;;;;0.17;0.17;;;;;;;19.52;50.26;101819.19;4959874;28;20500;-86
2023/09/08 00:47:30;;;;;;;0.10;0.10;;;;;;;19.57;49.97;101808.41;4975879;28;20117;-85
2023/09/08 00:49:56;;;;;;;0.10;0.10;;;;;;;19.50;49.78;101821.06;4975721;28;20030;-86
2023/09/08 00:52:21;;;;;;;0.10;0.10;;;;;;;19.49;50.38;101825.47;4992010;28;20484;-85
2023/09/08 00:54:47;;;;;;;0.10;0.10;;;;;;;19.54;50.36;101832.19;4991365;28;20026;-86
2023/09/08 00:57:12;;;;;;;0.20;0.20;;;;;;;19.36;50.40;101813.28;4975498;28;20031;-87
2023/09/08 00:59:38;;;;;;;0.10;0.10;;;;;;;19.32;51.13;101817.06;4975706;28;20026;-85
2023/09/08 01:02:03;;;;;;;0.10;0.10;;;;;;;19.23;51.70;101823.75;4975518;28;21078;-86
2023/09/08 01:04:29;;;;;;;0.10;0.10;;;;;;;19.34;50.83;101829.13;4991983;28;20026;-87
2023/09/08 01:06:55;;;;;;;0.10;0.10;;;;;;;19.30;50.94;101814.53;4975455;28;20992;-85
2023/09/08 01:09:21;;;;;;;0.20;0.20;;;;;;;19.39;51.19;101834.09;4975243;28;20054;-86
2023/09/08 01:11:46;;;;;;;0.10;0.10;;;;;;;19.30;51.50;101818.94;4975091;28;20488;-85
2023/09/08 01:14:13;;;;;;;0.20;0.20;;;;;;;19.29;52.29;101817.28;4958798;28;20031;-85
2023/09/08 01:16:40;;;;;;;0.20;0.20;;;;;;;19.20;53.25;101818.72;4975653;28;20356;-86
2023/09/08 01:19:09;;;;;;;0.10;0.10;;;;;;;19.12;54.55;101821.84;4959563;28;20440;-85
2023/09/08 01:21:37;;;;;;;0.10;0.10;;;;;;;19.01;54.30;101799.88;4975363;28;20054;-86
2023/09/08 01:24:14;;;;;;;0.10;0.10;;;;;;;19.06;54.90;101831.88;4992518;28;20034;-86
2023/09/08 01:26:41;;;;;;;0.20;0.20;;;;;;;19.06;54.69;101829.25;4991204;28;20030;-85
2023/09/08 01:29:06;;;;;;;0.10;0.10;;;;;;;18.95;53.21;101814.22;4959006;28;20504;-86
2023/09/08 01:31:32;;;;;;;0.10;0.10;;;;;;;19.06;52.92;101830.09;4958842;28;20035;-85
2023/09/08 01:33:59;;;;;;;0.10;0.10;;;;;;;18.92;52.80;101820.53;4959052;28;20408;-85
2023/09/08 01:36:25;;;;;;;0.20;0.20;;;;;;;18.81;53.34;101811.69;4974889;28;20058;-86
2023/09/08 01:38:50;;;;;;;0.20;0.20;;;;;;;18.80;52.97;101815.25;4974796;28;20058;-85
2023/09/08 01:41:16;;;;;;;0.10;0.10;;;;;;;18.79;53.21;101826.69;4974933;28;20500;-85
2023/09/08 01:43:41;;;;;;;0.10;0.10;;;;;;;18.80;53.29;101836.22;4974737;28;20496;-85
2023/09/08 01:46:07;;;;;;;0.17;0.17;;;;;;;18.85;52.88;101834.13;4991059;28;20528;-85
2023/09/08 01:48:32;;;;;;;0.10;0.10;;;;;;;18.83;52.90;101830.75;4990949;28;20030;-85
2023/09/08 01:50:57;;;;;;;0.10;0.10;;;;;;;18.74;52.78;101815.63;4990718;28;20060;-86
2023/09/08 01:53:23;;;;;;;0.20;0.20;;;;;;;18.64;53.07;101815.34;4974623;28;20591;-85
2023/09/08 01:55:48;;;;;;;0.10;0.10;;;;;;;18.67;53.46;101824.81;4974306;28;20038;-85
2023/09/08 01:58:14;;;;;;;0.20;0.20;;;;;;;18.78;53.32;101838.06;4974488;28;20030;-85
2023/09/08 02:00:39;;;;;;;0.20;0.20;;;;;;;18.75;53.55;101839.13;4990778;28;20037;-87
2023/09/08 02:03:04;;;;;;;0.10;0.10;;;;;;;18.54;54.16;101836.06;4990772;28;20031;-85
2023/09/08 02:05:30;;;;;;;0.10;0.10;;;;;;;18.53;54.51;101842.22;4974275;28;20034;-85
2023/09/08 02:07:56;;;;;;;0.13;0.13;;;;;;;18.34;54.93;101812.88;4991571;28;20031;-85
2023/09/08 02:10:22;;;;;;;0.10;0.10;;;;;;;18.40;54.95;101830.00;4974586;28;20089;-85
2023/09/08 02:12:47;;;;;;;0.10;0.10;;;;;;;18.58;54.59;101836.69;4974326;28;20065;-85
2023/09/08 02:15:13;;;;;;;0.20;0.20;;;;;;;18.57;54.55;101827.97;4974707;28;20492;-85
2023/09/08 02:17:38;;;;;;;0.10;0.10;;;;;;;18.65;54.38;101837.19;4974220;28;20377;-85
2023/09/08 02:20:04;;;;;;;0.20;0.20;;;;;;;18.59;54.44;101818.28;4957412;28;20054;-85
2023/09/08 02:22:29;;;;;;;0.10;0.10;;;;;;;18.54;54.57;101825.56;4990016;28;20512;-84
2023/09/08 02:24:56;;;;;;;0.10;0.10;;;;;;;18.50;55.14;101842.44;4973442;28;20586;-86
2023/09/08 02:27:22;;;;;;;0.10;0.10;;;;;;;18.51;55.06;101845.91;4990355;28;20030;-85
2023/09/08 02:29:47;;;;;;;0.20;0.20;;;;;;;18.48;54.87;101841.66;4974051;28;20088;-85
2023/09/08 02:32:14;;;;;;;0.10;0.10;;;;;;;18.44;55.17;101844.59;4990245;28;20030;-85
2023/09/08 02:34:41;;;;;;;0.10;0.10;;;;;;;18.43;55.03;101835.88;4973954;28;20022;-85
2023/09/08 02:37:06;;;;;;;0.10;0.10;;;;;;;18.32;55.33;101836.56;4990335;28;20068;-85
2023/09/08 02:39:32;;;;;;;0.10;0.10;;;;;;;18.38;55.30;101834.47;4974393;28;20034;-86
2023/09/08 02:41:58;;;;;;;0.10;0.10;;;;;;;18.42;55.78;101836.84;4957863;28;20039;-85
2023/09/08 02:44:23;;;;;;;0.10;0.10;;;;;;;18.35;55.81;101833.75;4974067;28;20022;-86
2023/09/08 02:46:48;;;;;;;0.10;0.10;;;;;;;18.38;55.42;101842.34;4973990;28;20412;-86
2023/09/08 02:49:14;;;;;;;0.10;0.10;;;;;;;18.19;55.81;101812.09;4989818;28;20505;-86
2023/09/08 02:51:39;;;;;;;0.10;0.10;;;;;;;18.29;55.93;101830.69;4991251;28;20492;-86
2023/09/08 02:54:05;;;;;;;0.20;0.20;;;;;;;18.25;56.75;101831.78;4973809;28;20034;-87
2023/09/08 02:56:30;;;;;;;0.10;0.10;;;;;;;18.26;56.46;101831.69;4990069;28;20026;-84
2023/09/08 02:58:56;;;;;;;0.10;0.10;;;;;;;18.18;56.88;101838.34;4957720;28;20038;-85
2023/09/08 03:01:22;;;;;;;0.20;0.20;;;;;;;18.13;56.61;101825.53;4989748;28;20041;-86
2023/09/08 03:03:48;;;;;;;0.10;0.10;;;;;;;17.93;57.57;101818.91;4989707;28;20061;-84
2023/09/08 03:06:14;;;;;;;0.10;0.10;;;;;;;18.05;57.28;101838.25;4974138;28;20031;-85
2023/09/08 03:08:39;;;;;;;0.10;0.10;;;;;;;18.00;56.97;101840.34;4973569;28;20033;-84
2023/09/08 03:13:49;;;;;;;0.20;0.20;;;;;;;17.81;57.61;101843.22;4976121;28;20459;-85
2023/09/08 03:16:14;;;;;;;0.10;0.10;;;;;;;17.72;57.87;101835.91;4973995;28;20038;-85
2023/09/08 03:18:39;;;;;;;0.10;0.10;;;;;;;17.64;57.76;101825.84;4973081;28;20500;-84
2023/09/08 03:21:11;;;;;;;0.10;0.10;;;;;;;17.75;57.52;101847.03;4973573;28;20033;-84
2023/09/08 03:23:40;;;;;;;0.10;0.10;;;;;;;17.47;58.71;101826.00;4974488;28;20028;-85
2023/09/08 03:26:06;;;;;;;0.20;0.20;;;;;;;17.44;58.82;101836.66;4989876;28;20491;-85
2023/09/08 03:28:32;;;;;;;0.10;0.10;;;;;;;17.44;59.57;101840.13;4973869;28;20030;-85
2023/09/08 03:30:57;;;;;;;0.20;0.20;;;;;;;17.34;59.44;101815.44;4957435;28;20036;-84
2023/09/08 03:33:23;;;;;;;0.10;0.10;;;;;;;17.42;59.41;101839.38;4989305;28;20061;-84
2023/09/08 03:35:48;;;;;;;0.10;0.10;;;;;;;17.50;58.99;101846.75;4973772;28;20412;-84
2023/09/08 03:38:14;;;;;;;0.20;0.20;;;;;;;17.45;59.30;101841.81;4993099;28;20030;-84
2023/09/08 03:40:40;;;;;;;0.10;0.10;;;;;;;17.36;59.31;101829.25;4977167;28;20030;-84
2023/09/08 03:43:05;;;;;;;0.10;0.10;;;;;;;17.46;59.20;101840.88;4992966;28;20030;-84
2023/09/08 03:45:30;;;;;;;0.10;0.10;;;;;;;17.58;58.86;101848.91;4976791;28;20041;-84
2023/09/08 03:47:56;;;;;;;0.20;0.20;;;;;;;17.48;59.08;101832.91;4960620;28;20488;-84
2023/09/08 03:50:21;;;;;;;0.10;0.10;;;;;;;17.44;59.04;101832.28;4961061;28;20404;-83
2023/09/08 03:52:47;;;;;;;0.20;0.20;;;;;;;17.60;59.47;101841.81;4948681;28;20055;-84
2023/09/08 03:55:12;;;;;;;0.10;0.10;;;;;;;17.64;58.51;101832.88;4973694;28;20035;-84
2023/09/08 03:57:38;;;;;;;0.20;0.20;;;;;;;17.64;57.89;101833.72;4957557;28;20038;-84
2023/09/08 04:00:07;;;;;;;0.10;0.10;;;;;;;17.65;58.16;101839.78;4957138;28;20035;-83
2023/09/08 04:02:33;;;;;;;0.10;0.10;;;;;;;17.75;58.34;101846.19;4941552;28;20023;-83
2023/09/08 04:04:58;;;;;;;0.20;0.20;;;;;;;17.76;58.36;101842.63;4957325;28;20026;-83
2023/09/08 04:07:24;;;;;;;0.10;0.10;;;;;;;17.80;58.11;101844.16;4956981;28;20488;-83
2023/09/08 04:09:49;;;;;;;0.10;0.10;;;;;;;17.83;58.07;101843.97;4969763;28;20034;-84
2023/09/08 04:12:15;;;;;;;0.20;0.20;;;;;;;17.75;58.01;101831.31;4973637;28;20026;-84
2023/09/08 04:14:41;;;;;;;0.20;0.20;;;;;;;18.00;57.00;101846.41;4971682;28;20082;-84
2023/09/08 04:17:06;;;;;;;0.20;0.20;;;;;;;17.94;57.23;101841.53;4971885;28;20023;-83
2023/09/08 04:19:31;;;;;;;0.10;0.10;;;;;;;17.81;57.20;101835.38;4972759;28;20059;-84
2023/09/08 04:21:57;;;;;;;0.10;0.10;;;;;;;17.89;57.57;101838.34;4973575;28;20027;-84
2023/09/08 04:24:22;;;;;;;0.20;0.20;;;;;;;17.92;57.24;101835.56;4972651;28;20527;-90
2023/09/08 04:26:48;;;;;;;0.20;0.20;;;;;;;17.91;57.18;101846.13;4957161;28;20031;-90
2023/09/08 04:29:13;;;;;;;0.30;0.20;;;;;;;17.97;57.11;101854.44;4973729;28;20035;-94
2023/09/08 04:31:39;;;;;;;0.20;0.20;;;;;;;17.96;56.75;101855.38;4936788;29;20032;-91
2023/09/08 04:34:07;;;;;;;0.20;0.20;;;;;;;17.99;56.82;101849.97;4942621;28;20031;-94
2023/09/08 04:36:32;;;;;;;0.10;0.10;;;;;;;17.71;57.36;101829.84;4965414;28;20042;-92
2023/09/08 04:38:58;;;;;;;0.20;0.20;;;;;;;17.76;57.11;101832.16;4980243;28;20106;-82
2023/09/08 04:41:23;;;;;;;0.10;0.10;;;;;;;17.80;57.87;101853.75;4961382;28;20049;-90
2023/09/08 04:43:53;;;;;;;0.20;0.20;;;;;;;17.85;57.97;101854.34;4959375;29;20031;-93
2023/09/08 04:46:19;;;;;;;0.10;0.10;;;;;;;18.66;56.79;101855.44;4926023;29;20039;-90
2023/09/08 04:48:44;;;;;;;0.20;0.20;;;;;;;18.74;56.46;101850.53;4924747;28;20027;-89
2023/09/08 04:51:10;;;;;;;0.10;0.10;;;;;;;19.69;54.57;101852.19;4953243;28;20034;-90
2023/09/08 04:53:36;;;;;;;0.20;0.20;;;;;;;19.54;54.29;101856.66;4938092;28;20050;-89
2023/09/08 04:56:01;;;;;;;0.20;0.20;;;;;;;20.28;51.79;101850.69;4964383;28;20029;-88
2023/09/08 04:58:27;;;;;;;0.20;0.20;;;;;;;20.51;51.17;101859.59;4974997;28;20030;-88
2023/09/08 05:00:52;;;;;;;0.20;0.20;;;;;;;20.95;49.43;101838.94;4957690;28;20033;-88
2023/09/08 05:03:18;;;;;;;0.20;0.20;;;;;;;21.53;48.09;101860.94;4956785;28;20030;-93
2023/09/08 05:05:44;;;;;;;0.20;0.20;;;;;;;21.59;48.13;101865.75;4975791;28;20034;-89
2023/09/08 05:08:10;;;;;;;0.20;0.20;;;;;;;21.56;47.71;101865.97;4956704;28;20476;-92
2023/09/08 05:10:35;;;;;;;0.20;0.20;;;;;;;21.56;48.41;101868.63;4940780;28;20034;-92
2023/09/08 05:13:01;;;;;;;0.20;0.20;;;;;;;21.78;48.00;101863.38;4954769;28;20519;-89
2023/09/08 05:15:26;;;;;;;0.10;0.10;;;;;;;22.00;47.10;101859.94;4973056;28;20034;-86
2023/09/08 05:17:52;;;;;;;0.10;0.10;;;;;;;21.98;47.62;101867.97;4957401;28;20034;-89
2023/09/08 05:20:18;;;;;;;0.10;0.10;;;;;;;22.14;47.59;101858.91;4941291;28;20035;-90
2023/09/08 05:22:43;;;;;;;0.20;0.20;;;;;;;22.32;47.15;101870.63;4957940;28;20105;-88
2023/09/08 05:25:09;;;;;;;0.20;0.20;;;;;;;22.43;46.63;101861.88;4957018;28;20436;-87
2023/09/08 05:27:34;;;;;;;0.20;0.20;;;;;;;22.52;47.09;101872.53;4975370;28;20031;-91
2023/09/08 05:30:01;;;;;;;0.20;0.20;;;;;;;22.43;46.75;101870.63;4948944;28;20013;-93
2023/09/08 05:32:26;;;;;;;0.20;0.20;;;;;;;22.06;47.00;101848.91;5001864;28;20101;-91
2023/09/08 05:34:52;;;;;;;0.20;0.20;;;;;;;22.17;47.87;101877.94;4990033;28;20034;-93
2023/09/08 05:37:17;;;;;;;0.15;0.15;;;;;;;22.22;46.92;101864.38;4984477;28;20031;-88
2023/09/08 05:39:43;;;;;;;0.10;0.10;;;;;;;21.99;47.74;101866.16;4966125;28;20031;-87
2023/09/08 05:42:08;;;;;;;0.20;0.20;;;;;;;21.93;47.91;101878.03;4967218;28;20038;-90
2023/09/08 05:44:34;;;;;;;0.20;0.20;;;;;;;21.53;47.73;101888.09;4946367;28;20478;-89
2023/09/08 05:46:59;;;;;;;0.20;0.20;;;;;;;21.55;48.79;101882.75;4943230;28;20117;-90
2023/09/08 05:49:24;;;;;;;0.10;0.10;;;;;;;21.45;49.82;101867.63;4967640;28;20031;-88
2023/09/08 05:51:50;;;;;;;0.20;0.20;;;;;;;21.62;49.55;101868.13;4971181;28;20035;-90
2023/09/08 05:54:15;;;;;;;0.20;0.20;;;;;;;21.58;49.73;101849.09;4954244;28;20428;-92
2023/09/08 05:56:41;;;;;;;0.20;0.20;;;;;;;21.97;48.59;101876.81;4973029;28;20061;-91
2023/09/08 05:59:06;;;;;;;0.10;0.10;;;;;;;22.31;48.31;101875.03;4972246;28;20027;-92
2023/09/08 06:01:32;;;;;;;0.20;0.20;;;;;;;22.45;47.06;101889.78;4963760;28;20031;-91
2023/09/08 06:03:58;;;;;;;0.20;0.20;;;;;;;22.42;47.87;101882.13;4956558;28;20428;-91
2023/09/08 06:06:25;;;;;;;0.20;0.20;;;;;;;22.46;47.10;101882.72;4920516;29;20039;-86
2023/09/08 06:09:00;;;;;;;0.20;0.20;;;;;;;22.40;47.46;101868.22;4957125;28;20037;-93
2023/09/08 06:11:26;;;;;;;0.20;0.20;;;;;;;22.09;46.19;101884.75;5023408;22;20064;-89
2023/09/08 06:13:54;;;;;;;0.10;0.10;;;;;;;21.98;47.20;101880.28;4959716;28;20432;-90
2023/09/08 06:16:20;;;;;;;0.20;0.20;;;;;;;21.72;48.28;101867.31;4973671;28;20034;-87
2023/09/08 06:18:45;;;;;;;0.17;0.17;;;;;;;21.99;48.05;101895.97;4973612;28;20028;-94
2023/09/08 06:21:11;;;;;;;0.20;0.20;;;;;;;22.02;48.42;101879.97;4959841;28;20030;-91
2023/09/08 06:23:36;;;;;;;0.20;0.20;;;;;;;22.30;48.34;101869.91;4974489;28;20034;-92
2023/09/08 06:26:02;;;;;;;0.20;0.20;;;;;;;22.60;47.10;101875.38;4993930;28;20098;-89
2023/09/08 06:28:27;;;;;;;0.20;0.20;;;;;;;22.67;46.62;101898.63;4990512;28;20030;-94
2023/09/08 06:30:53;;;;;;;0.20;0.20;;;;;;;22.62;47.16;101891.09;4976922;28;20551;-94
2023/09/08 06:33:24;;;;;;;0.20;0.20;;;;;;;22.86;46.80;101904.13;4995882;28;20038;-92
2023/09/08 06:35:50;;;;;;;0.15;0.15;;;;;;;22.73;46.44;101904.25;4976286;28;20038;-91
2023/09/08 06:38:15;;;;;;;0.20;0.20;;;;;;;22.72;47.21;101910.50;4963088;28;20081;-92
2023/09/08 06:40:41;;;;;;;0.20;0.20;;;;;;;22.70;46.97;101901.00;4989411;28;20038;-90
2023/09/08 06:43:06;;;;;;;0.20;0.20;;;;;;;23.08;45.92;101911.97;4961313;28;20045;-92
2023/09/08 06:45:32;;;;;;;0.20;0.20;;;;;;;23.05;46.31;101900.84;4961153;28;20111;-90
2023/09/08 06:47:58;;;;;;;0.20;0.20;;;;;;;23.10;46.03;101915.34;4959604;28;20037;-91
2023/09/08 06:50:23;;;;;;;0.20;0.20;;;;;;;22.75;45.39;101914.69;4978012;28;22174;-84
2023/09/08 06:52:52;;;;;;;0.20;0.20;;;;;;;22.33;45.95;101903.94;4976064;28;20527;-93
2023/09/08 06:55:18;;;;;;;0.20;0.20;;;;;;;22.30;48.19;101888.34;4959311;28;20068;-88
2023/09/08 06:57:44;;;;;;;0.20;0.20;;;;;;;22.44;45.99;101884.66;4989894;28;20022;-86
2023/09/08 07:00:11;;;;;;;0.20;0.20;;;;;;;22.47;47.35;101910.75;5005124;28;20088;-93
2023/09/08 07:02:37;;;;;;;0.20;0.20;;;;;;;22.54;46.82;101901.41;4980155;28;20037;-89
2023/09/08 07:05:07;;;;;;;0.13;0.13;;;;;;;22.53;46.81;101903.22;4973051;28;20031;-88
2023/09/08 07:07:35;;;;;;;0.20;0.20;;;;;;;22.49;46.56;101912.31;4959785;28;20088;-88
2023/09/08 07:10:05;;;;;;;0.20;0.20;;;;;;;22.53;48.42;101908.50;4971996;28;20046;-87
2023/09/08 07:12:30;;;;;;;0.20;0.20;;;;;;;22.77;46.66;101907.47;5006198;28;20057;-85
2023/09/08 07:14:56;;;;;;;0.20;0.20;;;;;;;22.79;46.53;101905.56;4996858;28;20033;-87
2023/09/08 07:17:23;;;;;;;0.20;0.20;;;;;;;22.73;47.51;101908.69;5002023;28;20034;-93
2023/09/08 07:19:49;;;;;;;0.15;0.15;;;;;;;22.82;46.45;101900.06;4978750;28;20030;-89
2023/09/08 07:22:14;;;;;;;0.20;0.20;;;;;;;22.90;47.22;101902.91;4978604;28;20037;-93
2023/09/08 07:24:40;;;;;;;0.20;0.20;;;;;;;22.97;46.60;101904.09;4960731;28;20030;-87
2023/09/08 07:27:05;;;;;;;0.20;0.20;;;;;;;22.86;46.36;101890.94;4998896;28;20036;-88
2023/09/08 07:29:31;;;;;;;0.20;0.20;;;;;;;23.08;46.05;101901.44;4977563;28;20037;-88
2023/09/08 07:31:56;;;;;;;0.20;0.20;;;;;;;23.16;46.06;101896.38;4973829;28;20034;-85
2023/09/08 07:34:22;;;;;;;0.20;0.20;;;;;;;23.39;45.65;101909.47;4976616;28;20034;-88
2023/09/08 07:36:47;;;;;;;0.20;0.20;;;;;;;23.50;45.33;101892.72;4998719;28;20045;-90
2023/09/08 07:39:13;;;;;;;0.20;0.20;;;;;;;23.55;44.72;101893.19;4978661;28;20089;-90
2023/09/08 07:41:40;;;;;;;0.20;0.20;;;;;;;23.52;44.30;101890.81;4995445;28;20488;-88
2023/09/08 07:44:06;;;;;;;0.10;0.10;;;;;;;23.72;44.45;101882.91;4979711;28;20030;-87
2023/09/08 07:46:31;;;;;;;0.20;0.20;;;;;;;23.91;44.11;101892.75;4969324;28;20030;-86
2023/09/08 07:48:58;;;;;;;0.20;0.20;;;;;;;24.00;44.97;101875.28;4975766;28;20053;-88
2023/09/08 07:51:23;;;;;;;0.20;0.20;;;;;;;24.27;44.50;101896.66;4975112;28;20030;-91
2023/09/08 07:53:49;;;;;;;0.20;0.20;;;;;;;24.37;43.83;101903.81;4947022;28;20058;-92
2023/09/08 07:56:14;;;;;;;0.20;0.20;;;;;;;24.35;43.43;101898.69;4958497;28;20131;-90
2023/09/08 07:58:40;;;;;;;0.20;0.20;;;;;;;24.42;43.32;101893.69;4960064;28;20175;-87
2023/09/08 08:01:05;;;;;;;0.20;0.20;;;;;;;24.55;43.59;101889.81;4994186;28;20041;-88
2023/09/08 08:03:31;;;;;;;0.20;0.20;;;;;;;24.72;42.75;101893.63;4976163;28;20033;-88
2023/09/08 08:05:56;;;;;;;0.20;0.20;;;;;;;24.71;41.93;101897.25;4959875;28;20485;-92
2023/09/08 08:08:22;;;;;;;0.20;0.20;;;;;;;24.67;42.24;101893.19;4990016;28;20105;-86
2023/09/08 08:10:47;;;;;;;0.20;0.20;;;;;;;24.68;42.30;101894.91;4992727;28;20057;-90
2023/09/08 08:13:13;;;;;;;0.20;0.20;;;;;;;24.75;41.93;101880.13;5009551;28;20085;-91
2023/09/08 08:15:40;;;;;;;0.20;0.20;;;;;;;24.95;42.96;101896.03;4995996;28;20027;-92
2023/09/08 08:18:05;;;;;;;0.20;0.20;;;;;;;25.16;42.23;101884.34;4975731;28;20026;-87
2023/09/08 08:20:34;;;;;;;0.20;0.20;;;;;;;25.30;41.39;101880.47;4980555;28;20064;-89
2023/09/08 08:23:00;;;;;;;0.20;0.20;;;;;;;25.52;41.16;101883.78;4997846;28;20031;-93
2023/09/08 08:25:26;;;;;;;0.20;0.20;;;;;;;25.61;40.44;101890.88;4961497;28;20034;-93
2023/09/08 08:27:51;;;;;;;0.20;0.20;;;;;;;25.71;39.99;101883.78;4960282;28;20555;-91
2023/09/08 08:30:17;;;;;;;0.20;0.20;;;;;;;25.79;40.97;101886.56;4992651;28;20039;-91
2023/09/08 08:32:42;;;;;;;0.20;0.20;;;;;;;25.97;40.84;101889.31;4956208;28;20045;-93
2023/09/08 08:35:08;;;;;;;0.20;0.20;;;;;;;26.14;40.48;101890.31;4978819;28;20472;-94
2023/09/08 08:37:33;;;;;;;0.20;0.20;;;;;;;26.35;40.18;101890.09;4959024;28;20034;-92
2023/09/08 08:39:59;;;;;;;0.20;0.20;;;;;;;26.46;39.60;101876.69;4977764;28;20041;-93
2023/09/08 08:42:32;;;;;;;0.20;0.20;;;;;;;26.47;39.53;101878.34;4993758;28;20045;-93
2023/09/08 08:44:58;;;;;;;0.20;0.20;;;;;;;26.49;38.83;101868.41;4962352;28;20038;-94
2023/09/08 08:47:25;;;;;;;0.20;0.20;;;;;;;26.45;38.60;101872.34;4976706;28;20030;-88
2023/09/08 08:49:50;;;;;;;0.20;0.20;;;;;;;26.63;39.18;101869.72;4976107;28;20465;-91
2023/09/08 08:52:15;;;;;;;0.20;0.20;;;;;;;26.80;38.40;101871.56;4991131;28;20038;-85
2023/09/08 08:54:42;;;;;;;0.20;0.20;;;;;;;27.05;37.83;101870.00;4983370;28;20046;-93
2023/09/08 08:57:07;;;;;;;0.25;0.25;;;;;;;27.15;38.13;101876.91;4992380;28;20026;-92
2023/09/08 08:59:33;;;;;;;0.20;0.20;;;;;;;27.29;37.46;101872.88;4976724;28;20088;-92
2023/09/08 09:01:59;;;;;;;0.20;0.20;;;;;;;27.53;37.26;101882.00;4978843;28;20519;-93
2023/09/08 09:04:25;;;;;;;0.20;0.20;;;;;;;27.61;36.92;101874.09;4956482;28;20077;-93
2023/09/08 09:06:56;;;;;;;0.20;0.20;;;;;;;27.55;36.98;101872.91;4976578;28;20033;-93
2023/09/08 09:09:22;;;;;;;0.20;0.20;;;;;;;27.60;37.26;101848.50;4968703;28;20026;-88
2023/09/08 09:11:47;;;;;;;0.20;0.20;;;;;;;27.78;38.32;101873.22;4974162;28;20037;-92
2023/09/08 09:14:12;;;;;;;0.20;0.20;;;;;;;27.77;36.99;101857.44;4976995;28;20037;-94
2023/09/08 09:16:42;;;;;;;0.20;0.20;;;;;;;27.81;36.28;101850.81;4963151;28;20042;-92
2023/09/08 09:19:07;;;;;;;0.20;0.20;;;;;;;27.86;36.46;101854.66;4992019;28;20045;-93
2023/09/08 09:21:51;;;;;;;0.20;0.20;;;;;;;28.04;36.42;101851.94;4988380;28;20038;-90
2023/09/08 09:24:38;;;;;;;0.20;0.20;;;;;;;28.14;35.42;101857.97;4958363;28;20034;-88
2023/09/08 09:27:05;;;;;;;0.20;0.20;;;;;;;28.27;35.57;101858.34;4980834;28;20026;-93
2023/09/08 09:29:31;;;;;;;0.20;0.20;;;;;;;28.22;35.48;101834.06;5035480;23;20045;-92
2023/09/08 09:31:59;;;;;;;0.20;0.20;;;;;;;28.49;36.01;101851.59;5030736;28;20111;-94
2023/09/08 09:34:25;;;;;;;0.20;0.20;;;;;;;28.55;35.64;101845.63;5029546;28;20034;-92
2023/09/08 09:36:50;;;;;;;0.20;0.20;;;;;;;28.58;35.70;101833.81;5050124;28;20080;-93
2023/09/08 09:39:20;;;;;;;0.20;0.20;;;;;;;28.64;35.65;101843.84;5030304;28;20534;-94
2023/09/08 09:41:46;;;;;;;0.20;0.20;;;;;;;28.74;34.57;101827.69;5026315;28;20037;-89
2023/09/08 09:44:12;;;;;;;0.17;0.17;;;;;;;28.79;34.15;101826.19;5029548;28;20406;-92
2023/09/08 09:46:37;;;;;;;0.20;0.20;;;;;;;28.86;35.08;101827.19;5028645;28;20037;-90
2023/09/08 09:49:03;;;;;;;0.20;0.20;;;;;;;28.94;34.54;101833.56;5026247;28;20484;-90
2023/09/08 09:51:29;;;;;;;0.20;0.20;;;;;;;29.01;34.44;101839.91;5017643;28;20044;-92
2023/09/08 09:53:54;;;;;;;0.20;0.20;;;;;;;28.98;34.06;101829.56;5000879;28;20045;-93
2023/09/08 09:56:20;;;;;;;0.20;0.20;;;;;;;29.07;34.83;101828.56;5043374;28;20400;-91
2023/09/08 09:58:45;;;;;;;0.20;0.20;;;;;;;29.11;33.68;101820.09;5029730;28;20030;-92
2023/09/08 10:01:11;;;;;;;0.20;0.20;;;;;;;29.08;34.42;101819.56;5017342;28;20034;-92
2023/09/08 10:03:39;;;;;;;0.20;0.20;;;;;;;29.16;34.42;101816.91;5026180;28;20067;-88
2023/09/08 10:06:08;;;;;;;0.20;0.20;;;;;;;29.27;34.18;101816.56;5026417;28;20072;-91
2023/09/08 10:08:36;;;;;;;0.20;0.20;;;;;;;29.30;34.25;101807.38;5026127;28;20072;-90
2023/09/08 10:11:04;;;;;;;0.20;0.20;;;;;;;29.51;33.30;101818.41;5019626;28;20029;-89
2023/09/08 10:13:31;;;;;;;0.20;0.20;;;;;;;29.50;33.36;101798.06;5031968;28;20037;-88
2023/09/08 10:15:57;;;;;;;0.20;0.20;;;;;;;29.53;33.50;101805.72;5028139;28;20048;-89
2023/09/08 10:18:23;;;;;;;0.20;0.20;;;;;;;29.54;33.40;101766.56;5028143;28;20444;-87
2023/09/08 10:20:48;;;;;;;0.20;0.20;;;;;;;29.70;33.42;101787.84;5021572;28;20087;-87
2023/09/08 10:23:27;;;;;;;0.20;0.20;;;;;;;29.76;32.40;101797.81;5012127;28;20083;-92
2023/09/08 10:25:54;;;;;;;0.20;0.20;;;;;;;29.67;33.17;101786.31;5012852;28;20025;-90
2023/09/08 10:28:21;;;;;;;0.25;0.25;;;;;;;29.79;33.69;101786.78;5028294;28;20057;-87
2023/09/08 10:30:47;;;;;;;0.20;0.20;;;;;;;29.95;33.39;101792.06;5030113;28;20490;-88
2023/09/08 10:33:12;;;;;;;0.20;0.20;;;;;;;30.03;33.08;101779.69;5011825;28;20045;-91
2023/09/08 10:35:38;;;;;;;0.20;0.20;;;;;;;29.90;33.08;101777.59;5031535;28;20487;-88
2023/09/08 10:38:26;;;;;;;0.20;0.20;;;;;;;29.93;32.83;101774.56;5013322;28;20022;-90
2023/09/08 10:41:32;;;;;;;0.20;0.20;;;;;;;30.11;32.96;101775.16;5031458;28;20025;-89
2023/09/08 10:44:01;;;;;;;0.30;0.30;;;;;;;30.22;32.35;101771.28;5030835;28;20022;-92
2023/09/08 10:46:27;;;;;;;0.20;0.20;;;;;;;30.28;32.32;101770.53;5012449;28;20021;-93
2023/09/08 10:48:54;;;;;;;0.20;0.20;;;;;;;30.26;31.94;101759.22;4997012;28;20029;-87
2023/09/08 10:51:21;;;;;;;0.20;0.20;;;;;;;30.53;31.96;101766.72;5013084;28;20030;-94
2023/09/08 10:53:50;;;;;;;0.20;0.20;;;;;;;30.58;31.47;101760.84;5012462;28;20021;-87
2023/09/08 10:56:16;;;;;;;0.20;0.20;;;;;;;30.61;31.29;101746.31;5029109;28;20506;-86
2023/09/08 10:58:43;;;;;;;0.20;0.20;;;;;;;30.62;31.62;101755.97;5012320;28;20087;-89
2023/09/08 11:01:19;;;;;;;0.20;0.20;;;;;;;30.84;31.59;101755.97;5027516;28;20026;-93
2023/09/08 11:03:49;;;;;;;0.20;0.20;;;;;;;30.86;31.07;101747.75;5018038;28;20443;-87
2023/09/08 11:06:18;;;;;;;0.20;0.20;;;;;;;30.83;31.11;101750.81;5028434;28;20469;-86
2023/09/08 11:08:44;;;;;;;0.20;0.20;;;;;;;30.87;30.92;101754.75;5030381;28;20029;-88
2023/09/08 11:11:13;;;;;;;0.20;0.20;;;;;;;30.69;30.88;101751.63;5010488;28;20053;-90
2023/09/08 11:13:45;;;;;;;0.20;0.20;;;;;;;30.66;31.42;101747.44;5032795;28;20076;-92
2023/09/08 11:16:33;;;;;;;0.20;0.20;;;;;;;30.52;32.00;101738.34;5033874;28;20033;-94
2023/09/08 11:18:58;;;;;;;0.20;0.20;;;;;;;30.38;31.64;101733.78;5011097;28;20030;-89
2023/09/08 11:21:24;;;;;;;0.20;0.20;;;;;;;30.23;31.95;101724.88;5018945;28;20479;-93
2023/09/08 11:23:49;;;;;;;0.20;0.20;;;;;;;29.99;31.97;101720.53;5015030;28;20388;-90